Time;durP1;ratioP1;P1;durP2;ratioP2;P2;SDS_P1;SDS_P2;PMS_P1;PMS_P2;Temp;Humidity;BMP_temperature;BMP_pressure;BME280_temperature;BME280_humidity;BME280_pressure;Samples;Min_cycle;Max_cycle;Signal;HPM_P1;HPM_P2
2024/02/08 00:01:54;;;;;;;8.35;5.00;;;;;;;;;;5027990;28;20034;-58
2024/02/08 00:04:20;;;;;;;8.40;5.00;;;;;;;;;;5028147;28;20082;-57
2024/02/08 00:06:46;;;;;;;7.65;4.55;;;;;;;;;;5027589;28;20212;-60
2024/02/08 00:09:12;;;;;;;7.72;4.57;;;;;;;;;;5027834;28;20795;-56
2024/02/08 00:11:38;;;;;;;7.93;4.80;;;;;;;;;;5027153;28;20040;-58
2024/02/08 00:14:04;;;;;;;8.07;4.78;;;;;;;;;;5027817;28;20030;-56
2024/02/08 00:16:30;;;;;;;8.50;5.03;;;;;;;;;;5039499;28;20506;-58
2024/02/08 00:18:56;;;;;;;8.60;5.10;;;;;;;;;;5008150;28;20022;-57
2024/02/08 00:21:22;;;;;;;8.68;5.15;;;;;;;;;;5007717;28;20026;-55
2024/02/08 00:23:48;;;;;;;8.88;5.30;;;;;;;;;;5024085;28;20086;-58
2024/02/08 00:26:16;;;;;;;8.77;5.20;;;;;;;;;;5021682;28;20042;-57
2024/02/08 00:28:42;;;;;;;8.00;4.78;;;;;;;;;;5019088;28;20627;-61
2024/02/08 00:31:08;;;;;;;7.85;4.60;;;;;;;;;;5022543;28;20033;-55
2024/02/08 00:33:34;;;;;;;7.72;4.60;;;;;;;;;;5023492;28;20028;-58
2024/02/08 00:36:03;;;;;;;7.50;4.50;;;;;;;;;;5027116;28;20033;-58
2024/02/08 00:38:29;;;;;;;6.85;4.10;;;;;;;;;;5027199;28;20080;-58
2024/02/08 00:40:56;;;;;;;6.90;4.10;;;;;;;;;;5027659;28;20483;-56
2024/02/08 00:43:22;;;;;;;6.95;4.15;;;;;;;;;;5044777;28;20088;-61
2024/02/08 00:45:48;;;;;;;6.88;4.10;;;;;;;;;;5029912;28;20519;-59
2024/02/08 00:48:14;;;;;;;6.90;4.10;;;;;;;;;;5030047;28;20025;-58
2024/02/08 00:50:40;;;;;;;6.70;4.00;;;;;;;;;;5029671;28;20120;-60
2024/02/08 00:53:06;;;;;;;6.88;4.10;;;;;;;;;;5028974;28;20028;-60
2024/02/08 00:55:33;;;;;;;6.20;3.70;;;;;;;;;;5029596;28;20030;-61
2024/02/08 00:58:00;;;;;;;6.30;3.70;;;;;;;;;;5029745;28;20017;-61
2024/02/08 01:00:28;;;;;;;6.00;3.60;;;;;;;;;;5029745;28;20025;-60
2024/02/08 01:02:54;;;;;;;5.53;3.30;;;;;;;;;;5029683;28;20026;-60
2024/02/08 01:05:20;;;;;;;5.75;3.42;;;;;;;;;;5029992;28;20061;-60
2024/02/08 01:07:47;;;;;;;5.85;3.50;;;;;;;;;;5029394;28;20033;-58
2024/02/08 01:10:13;;;;;;;6.50;3.80;;;;;;;;;;5030397;28;20060;-60
2024/02/08 01:12:39;;;;;;;5.97;3.50;;;;;;;;;;5029649;28;20053;-59
2024/02/08 01:15:05;;;;;;;6.00;3.58;;;;;;;;;;5028662;28;20452;-60
2024/02/08 01:17:32;;;;;;;6.10;3.60;;;;;;;;;;5029871;28;20034;-59
2024/02/08 01:20:00;;;;;;;6.20;3.67;;;;;;;;;;5029818;28;20025;-60
2024/02/08 01:22:26;;;;;;;12.27;11.13;;;;;;;;;;5028188;28;20061;-59
2024/02/08 01:24:52;;;;;;;6.60;3.90;;;;;;;;;;5029873;28;20429;-60
2024/02/08 01:27:20;;;;;;;6.47;3.85;;;;;;;;;;5029887;28;20109;-60
2024/02/08 01:29:47;;;;;;;6.50;3.90;;;;;;;;;;5029760;28;20484;-60
2024/02/08 01:32:15;;;;;;;6.90;4.20;;;;;;;;;;5029360;28;20111;-60
2024/02/08 01:34:41;;;;;;;7.10;4.20;;;;;;;;;;5029597;28;20705;-60
2024/02/08 01:37:07;;;;;;;6.65;3.92;;;;;;;;;;5029196;28;20104;-60
2024/02/08 01:39:33;;;;;;;6.70;4.00;;;;;;;;;;5029329;28;20113;-61
2024/02/08 01:41:59;;;;;;;6.80;4.03;;;;;;;;;;5029143;28;20471;-60
2024/02/08 01:44:25;;;;;;;6.57;3.90;;;;;;;;;;5029300;28;20056;-59
2024/02/08 01:46:51;;;;;;;6.80;4.10;;;;;;;;;;5029387;28;20164;-60
2024/02/08 01:49:20;;;;;;;6.63;3.90;;;;;;;;;;5028090;28;20052;-57
2024/02/08 01:51:46;;;;;;;;;;;;;;;;;;5029619;28;20638;-60
2024/02/08 01:54:12;;;;;;;6.60;3.92;;;;;;;;;;5029177;28;19980;-60
2024/02/08 01:56:41;;;;;;;6.70;4.00;;;;;;;;;;5029072;28;20037;-60
2024/02/08 01:59:09;;;;;;;6.60;3.90;;;;;;;;;;5028963;28;20464;-61
2024/02/08 02:01:35;;;;;;;7.50;4.50;;;;;;;;;;5028755;28;20025;-60
2024/02/08 02:04:01;;;;;;;7.00;4.20;;;;;;;;;;5028893;28;20116;-60
2024/02/08 02:06:27;;;;;;;6.88;4.10;;;;;;;;;;5028994;28;20080;-60
2024/02/08 02:08:57;;;;;;;7.03;4.20;;;;;;;;;;5028881;28;20486;-60
2024/02/08 02:11:35;;;;;;;7.07;4.22;;;;;;;;;;5027554;28;20030;-60
2024/02/08 02:14:02;;;;;;;6.68;4.00;;;;;;;;;;5029017;28;20021;-60
2024/02/08 02:16:28;;;;;;;7.10;4.28;;;;;;;;;;5028885;28;20077;-60
2024/02/08 02:18:54;;;;;;;7.22;4.32;;;;;;;;;;5033050;28;20033;-60
2024/02/08 02:21:23;;;;;;;6.95;4.20;;;;;;;;;;5035149;28;20491;-60
2024/02/08 02:23:52;;;;;;;7.40;4.47;;;;;;;;;;5035321;28;20026;-59
2024/02/08 02:26:22;;;;;;;8.15;4.80;;;;;;;;;;5034144;28;20519;-60
2024/02/08 02:28:48;;;;;;;7.60;4.57;;;;;;;;;;5035458;28;20103;-61
2024/02/08 02:31:16;;;;;;;6.90;4.10;;;;;;;;;;5035594;28;20025;-59
2024/02/08 02:33:43;;;;;;;7.13;4.30;;;;;;;;;;5035389;28;20510;-61
2024/02/08 02:36:12;;;;;;;7.43;4.40;;;;;;;;;;5035528;28;20096;-60
2024/02/08 02:38:41;;;;;;;;;;;;;;;;;;5036176;28;20053;-61
2024/02/08 02:41:07;;;;;;;7.32;4.40;;;;;;;;;;5035575;28;19905;-59
2024/02/08 02:43:34;;;;;;;7.40;4.35;;;;;;;;;;5035200;28;20096;-59
2024/02/08 02:46:00;;;;;;;7.30;4.40;;;;;;;;;;5034209;28;20025;-61
2024/02/08 02:48:26;;;;;;;7.80;4.60;;;;;;;;;;5034345;28;20084;-59
2024/02/08 02:50:52;;;;;;;7.03;4.20;;;;;;;;;;5035350;28;20025;-60
2024/02/08 02:53:19;;;;;;;7.70;4.60;;;;;;;;;;5033917;28;20549;-59
2024/02/08 02:55:45;;;;;;;7.40;4.50;;;;;;;;;;5035086;28;20017;-61
2024/02/08 02:58:12;;;;;;;7.63;4.50;;;;;;;;;;5035407;28;20507;-58
2024/02/08 03:00:38;;;;;;;7.50;4.55;;;;;;;;;;5035334;28;20637;-57
2024/02/08 03:03:08;;;;;;;7.40;4.47;;;;;;;;;;5033610;28;20175;-60
2024/02/08 03:05:45;;;;;;;7.70;4.60;;;;;;;;;;5035102;28;20025;-59
2024/02/08 03:08:11;;;;;;;8.60;5.10;;;;;;;;;;5034722;28;20509;-60
2024/02/08 03:10:37;;;;;;;8.90;5.30;;;;;;;;;;5034992;28;20256;-59
2024/02/08 03:13:04;;;;;;;8.20;4.90;;;;;;;;;;5034917;28;20028;-56
2024/02/08 03:15:30;;;;;;;7.47;4.47;;;;;;;;;;5035137;28;20507;-61
2024/02/08 03:17:56;;;;;;;11.20;8.68;;;;;;;;;;5034981;28;20045;-60
2024/02/08 03:20:29;;;;;;;7.70;4.60;;;;;;;;;;5033772;28;20391;-61
2024/02/08 03:22:56;;;;;;;14.02;12.70;;;;;;;;;;5033335;28;20030;-60
2024/02/08 03:25:22;;;;;;;8.20;4.90;;;;;;;;;;5033632;28;20045;-61
2024/02/08 03:27:51;;;;;;;8.10;4.80;;;;;;;;;;5035001;28;20067;-61
2024/02/08 03:30:22;;;;;;;8.32;4.93;;;;;;;;;;5032729;28;20033;-60
2024/02/08 03:32:52;;;;;;;7.43;4.40;;;;;;;;;;5031788;28;20029;-58
2024/02/08 03:35:25;;;;;;;8.15;4.82;;;;;;;;;;5031999;28;20075;-62
2024/02/08 03:37:54;;;;;;;7.85;4.70;;;;;;;;;;5030552;28;20033;-61
2024/02/08 03:40:21;;;;;;;7.80;4.68;;;;;;;;;;5030509;28;20018;-60
2024/02/08 03:42:48;;;;;;;8.07;4.80;;;;;;;;;;5031599;28;20484;-60
2024/02/08 03:45:14;;;;;;;7.85;4.70;;;;;;;;;;5031720;28;20091;-61
2024/02/08 03:47:40;;;;;;;8.20;4.90;;;;;;;;;;5031635;28;20025;-60
2024/02/08 03:50:06;;;;;;;8.15;4.90;;;;;;;;;;5031685;28;20514;-59
2024/02/08 03:52:32;;;;;;;8.02;4.80;;;;;;;;;;5031187;28;20104;-61
2024/02/08 03:54:58;;;;;;;8.05;4.75;;;;;;;;;;5031702;28;20022;-60
2024/02/08 03:57:24;;;;;;;7.93;4.72;;;;;;;;;;5031595;28;20029;-60
2024/02/08 03:59:53;;;;;;;8.57;5.10;;;;;;;;;;5031411;28;20377;-61
2024/02/08 04:02:21;;;;;;;8.20;4.90;;;;;;;;;;5031073;28;20446;-58
2024/02/08 04:04:53;;;;;;;7.80;4.70;;;;;;;;;;5031300;28;20025;-56
2024/02/08 04:07:34;;;;;;;7.88;4.68;;;;;;;;;;5030024;28;20040;-60
2024/02/08 04:10:10;;;;;;;7.80;4.70;;;;;;;;;;5031023;28;20517;-57
2024/02/08 04:53:57;;;;;;;8.57;5.10;;;;;;;;;;5030236;28;20045;-59
2024/02/08 04:56:23;;;;;;;8.60;5.10;;;;;;;;;;5030033;28;20026;-60
2024/02/08 04:58:50;;;;;;;8.80;5.22;;;;;;;;;;5030621;28;20033;-60
2024/02/08 05:01:17;;;;;;;8.82;5.18;;;;;;;;;;5030507;28;20033;-60
2024/02/08 05:03:44;;;;;;;7.90;4.75;;;;;;;;;;5030320;28;20024;-60
2024/02/08 05:06:11;;;;;;;8.43;5.00;;;;;;;;;;5030321;28;20120;-58
2024/02/08 05:08:41;;;;;;;8.65;5.20;;;;;;;;;;5030289;28;20029;-61
2024/02/08 05:11:10;;;;;;;9.07;5.43;;;;;;;;;;5030066;28;20030;-59
2024/02/08 05:13:40;;;;;;;9.57;5.70;;;;;;;;;;5045584;28;20022;-58
2024/02/08 05:16:06;;;;;;;8.82;5.22;;;;;;;;;;5030163;28;20491;-57
2024/02/08 05:18:33;;;;;;;8.95;5.32;;;;;;;;;;5030161;28;20068;-60
2024/02/08 05:20:59;;;;;;;9.30;5.50;;;;;;;;;;5029650;28;20018;-61
2024/02/08 05:23:25;;;;;;;10.30;6.10;;;;;;;;;;5029585;28;20030;-57
2024/02/08 05:25:56;;;;;;;10.00;5.90;;;;;;;;;;5045150;28;20388;-60
2024/02/08 05:28:22;;;;;;;9.85;5.80;;;;;;;;;;5029665;28;20022;-60
2024/02/08 05:30:49;;;;;;;11.00;7.80;;;;;;;;;;5029411;28;20147;-60
2024/02/08 05:33:15;;;;;;;10.23;6.00;;;;;;;;;;5025924;28;20084;-60
2024/02/08 05:35:44;;;;;;;10.30;6.07;;;;;;;;;;5029305;28;20018;-60
2024/02/08 05:38:10;;;;;;;9.60;5.70;;;;;;;;;;5027792;28;20052;-59
2024/02/08 05:40:43;;;;;;;9.70;5.72;;;;;;;;;;5027679;28;20499;-60
2024/02/08 05:43:09;;;;;;;9.90;5.90;;;;;;;;;;5028713;28;20638;-58
2024/02/08 05:45:35;;;;;;;10.70;6.30;;;;;;;;;;5029121;28;20029;-60
2024/02/08 05:48:05;;;;;;;9.90;5.82;;;;;;;;;;5028867;28;20032;-59
2024/02/08 05:50:31;;;;;;;10.38;6.15;;;;;;;;;;5027589;28;20501;-59
2024/02/08 05:52:57;;;;;;;10.73;6.30;;;;;;;;;;5028301;28;20442;-60
2024/02/08 05:55:26;;;;;;;10.80;6.40;;;;;;;;;;5028766;28;20024;-62
2024/02/08 05:57:58;;;;;;;10.90;6.40;;;;;;;;;;5019397;28;20395;-60
2024/02/08 06:00:36;;;;;;;11.30;6.63;;;;;;;;;;5027928;28;20026;-60
2024/02/08 06:03:05;;;;;;;11.85;6.90;;;;;;;;;;5028844;28;20029;-59
2024/02/08 06:05:32;;;;;;;11.70;6.85;;;;;;;;;;5029211;28;20028;-60
2024/02/08 06:07:59;;;;;;;12.13;7.10;;;;;;;;;;5028662;28;20398;-60
2024/02/08 06:10:45;;;;;;;11.80;6.90;;;;;;;;;;5028652;28;20128;-60
2024/02/08 06:13:15;;;;;;;12.50;7.32;;;;;;;;;;5028101;28;20025;-59
2024/02/08 06:15:47;;;;;;;11.80;6.90;;;;;;;;;;5028581;28;20083;-60
2024/02/08 06:18:24;;;;;;;12.07;7.00;;;;;;;;;;5028736;28;20025;-61
2024/02/08 06:21:39;;;;;;;12.35;7.20;;;;;;;;;;5028755;28;20025;-60
2024/02/08 06:23:45;;;;;;;11.50;6.70;;;;;;;;;;5025521;28;20045;-58
2024/02/08 06:28:40;;;;;;;12.30;7.20;;;;;;;;;;5028537;28;20120;-61
2024/02/08 06:31:07;;;;;;;12.20;7.15;;;;;;;;;;5028502;28;20400;-61
2024/02/08 06:33:42;;;;;;;12.27;7.10;;;;;;;;;;5026028;28;20025;-59
2024/02/08 06:36:08;;;;;;;12.20;7.10;;;;;;;;;;5021232;28;20041;-61
2024/02/08 06:38:43;;;;;;;11.90;6.97;;;;;;;;;;5027980;28;20072;-60
2024/02/08 06:41:12;;;;;;;12.63;8.32;;;;;;;;;;5027939;28;20033;-59
2024/02/08 06:46:39;;;;;;;12.25;7.15;;;;;;;;;;5028454;28;19911;-58
2024/02/08 07:41:19;;;;;;;13.23;7.75;;;;;;;;;;5011759;28;20028;-60
2024/02/08 07:43:54;;;;;;;13.23;7.80;;;;;;;;;;5011766;28;20018;-61
2024/02/08 07:46:26;;;;;;;13.10;7.60;;;;;;;;;;5011706;28;20029;-59
2024/02/08 07:48:58;;;;;;;13.38;7.93;;;;;;;;;;5011683;28;20028;-62
2024/02/08 07:51:28;;;;;;;13.48;8.43;;;;;;;;;;5011338;28;20031;-60
2024/02/08 07:53:54;;;;;;;12.60;7.40;;;;;;;;;;5011232;28;20045;-60
2024/02/08 07:58:56;;;;;;;13.25;7.80;;;;;;;;;;5027584;28;20028;-60
2024/02/08 08:01:26;;;;;;;13.20;7.80;;;;;;;;;;5030684;28;20021;-60
2024/02/08 08:03:56;;;;;;;12.77;7.50;;;;;;;;;;5030688;28;20052;-60
2024/02/08 08:06:23;;;;;;;13.02;7.63;;;;;;;;;;5030778;28;20033;-59
2024/02/08 08:08:57;;;;;;;13.05;7.60;;;;;;;;;;5046048;28;20621;-60
2024/02/08 08:11:31;;;;;;;12.90;7.63;;;;;;;;;;5031087;28;20115;-59
2024/02/08 08:18:59;;;;;;;12.80;7.47;;;;;;;;;;5030800;28;20475;-60
2024/02/08 08:22:03;;;;;;;12.75;7.38;;;;;;;;;;5030430;28;20058;-59
2024/02/08 08:24:25;;;;;;;13.30;7.93;;;;;;;;;;5030680;28;20500;-60
2024/02/08 08:27:06;;;;;;;13.20;7.90;;;;;;;;;;5030521;28;20052;-59
2024/02/08 08:29:42;;;;;;;13.05;7.60;;;;;;;;;;5030679;28;20037;-60
2024/02/08 08:32:58;;;;;;;12.88;7.50;;;;;;;;;;5030371;28;20021;-60
2024/02/08 08:37:40;;;;;;;13.07;7.68;;;;;;;;;;5030019;28;20124;-60
2024/02/08 08:40:23;;;;;;;16.42;8.50;;;;;;;;;;5030737;28;20480;-61
2024/02/08 08:42:50;;;;;;;13.30;7.90;;;;;;;;;;5030194;28;20037;-60
2024/02/08 08:45:19;;;;;;;13.35;7.90;;;;;;;;;;5030653;28;20391;-60
2024/02/08 08:47:51;;;;;;;13.40;8.10;;;;;;;;;;5030598;28;20101;-60
2024/02/08 08:50:21;;;;;;;13.27;7.85;;;;;;;;;;5029273;28;20017;-60
2024/02/08 08:52:49;;;;;;;13.38;8.10;;;;;;;;;;5037124;28;20025;-60
2024/02/08 08:55:18;;;;;;;13.38;8.10;;;;;;;;;;5030550;28;20626;-60
2024/02/08 08:57:47;;;;;;;13.50;8.30;;;;;;;;;;5030393;28;20033;-61
2024/02/08 09:00:20;;;;;;;13.27;8.00;;;;;;;;;;5030689;28;20014;-60
2024/02/08 09:02:50;;;;;;;13.63;8.70;;;;;;;;;;5030346;28;20044;-60
2024/02/08 09:05:30;;;;;;;13.50;8.45;;;;;;;;;;5030626;28;20479;-62
2024/02/08 09:07:56;;;;;;;13.68;8.65;;;;;;;;;;5028965;28;20025;-64
2024/02/08 09:10:22;;;;;;;13.50;8.48;;;;;;;;;;5027042;28;20029;-57
2024/02/08 09:13:05;;;;;;;13.55;8.68;;;;;;;;;;5028494;28;20415;-58
2024/02/08 09:15:41;;;;;;;13.48;8.43;;;;;;;;;;5029658;28;20029;-56
2024/02/08 09:18:10;;;;;;;13.02;7.60;;;;;;;;;;5029304;28;20024;-56
2024/02/08 09:20:37;;;;;;;13.27;8.07;;;;;;;;;;5029622;28;20047;-56
2024/02/08 09:23:12;;;;;;;13.48;8.27;;;;;;;;;;5029336;28;20037;-59
2024/02/08 09:25:44;;;;;;;13.35;8.05;;;;;;;;;;5029135;28;20100;-58
2024/02/08 09:28:23;;;;;;;13.48;8.23;;;;;;;;;;5028726;28;20025;-57
2024/02/08 09:30:52;;;;;;;13.35;8.20;;;;;;;;;;5029250;28;20497;-57
2024/02/08 09:33:30;;;;;;;17.30;11.35;;;;;;;;;;5029055;28;20025;-58
2024/02/08 09:36:02;;;;;;;13.18;7.78;;;;;;;;;;5029211;28;20498;-57
2024/02/08 09:38:28;;;;;;;13.27;8.00;;;;;;;;;;5029049;28;20090;-60
2024/02/08 09:41:01;;;;;;;13.10;7.80;;;;;;;;;;5029201;28;20040;-60
2024/02/08 09:43:30;;;;;;;13.23;7.88;;;;;;;;;;5029155;28;20060;-58
2024/02/08 09:46:10;;;;;;;13.50;8.30;;;;;;;;;;5023227;28;20454;-58
2024/02/08 09:48:43;;;;;;;13.00;7.70;;;;;;;;;;5028894;28;20079;-58
2024/02/08 09:51:22;;;;;;;13.13;7.72;;;;;;;;;;5029275;28;20379;-58
2024/02/08 09:53:52;;;;;;;12.90;7.50;;;;;;;;;;5020989;28;20104;-60
2024/02/08 09:56:25;;;;;;;13.50;8.38;;;;;;;;;;5060692;28;20080;-57
2024/02/08 09:58:55;;;;;;;12.63;7.40;;;;;;;;;;5029227;28;20060;-59
2024/02/08 10:01:21;;;;;;;13.27;7.93;;;;;;;;;;5028734;28;20024;-59
2024/02/08 10:04:04;;;;;;;12.60;7.32;;;;;;;;;;5061353;28;20383;-58
2024/02/08 10:06:45;;;;;;;14.23;9.45;;;;;;;;;;5028924;28;20032;-57
2024/02/08 10:11:59;;;;;;;12.65;7.40;;;;;;;;;;5029069;28;20046;-57
2024/02/08 10:14:32;;;;;;;12.13;7.40;;;;;;;;;;5029172;28;20044;-57
2024/02/08 10:17:00;;;;;;;12.50;7.30;;;;;;;;;;5028864;28;20037;-58
2024/02/08 10:22:00;;;;;;;13.63;8.70;;;;;;;;;;5028238;28;20064;-59
2024/02/08 10:26:19;;;;;;;12.65;7.40;;;;;;;;;;5028863;28;20452;-58
2024/02/08 10:27:35;;;;;;;12.27;7.20;;;;;;;;;;5028362;28;20048;-59
2024/02/08 10:30:07;;;;;;;12.05;7.05;;;;;;;;;;5028975;28;20021;-60
2024/02/08 10:32:34;;;;;;;12.80;7.50;;;;;;;;;;5028055;28;20017;-58
2024/02/08 10:35:15;;;;;;;13.13;7.68;;;;;;;;;;5026986;28;20025;-57
2024/02/08 10:37:53;;;;;;;12.65;7.40;;;;;;;;;;5027401;28;20022;-61
2024/02/08 10:40:28;;;;;;;12.65;7.40;;;;;;;;;;5031529;28;20018;-60
2024/02/08 10:42:58;;;;;;;12.70;7.57;;;;;;;;;;5032013;28;20083;-60
2024/02/08 10:45:25;;;;;;;12.93;7.55;;;;;;;;;;5032426;28;20024;-57
2024/02/08 10:47:55;;;;;;;12.60;7.30;;;;;;;;;;5031613;28;20052;-57
2024/02/08 10:50:27;;;;;;;12.93;7.60;;;;;;;;;;5032118;28;20440;-58
2024/02/08 10:52:54;;;;;;;12.10;7.10;;;;;;;;;;5032200;28;20084;-59
2024/02/08 10:55:30;;;;;;;13.00;8.68;;;;;;;;;;5032344;28;20052;-61
2024/02/08 11:08:32;;;;;;;12.23;7.32;;;;;;;;;;5032069;28;20032;-56
2024/02/08 11:11:03;;;;;;;12.02;7.30;;;;;;;;;;5031882;28;20135;-57
2024/02/08 11:13:37;;;;;;;12.77;7.53;;;;;;;;;;5031443;28;20128;-55
2024/02/08 11:16:19;;;;;;;12.02;7.03;;;;;;;;;;5031632;28;20021;-53
2024/02/08 11:18:47;;;;;;;12.93;7.90;;;;;;;;;;5030251;28;20056;-55
2024/02/08 11:21:19;;;;;;;12.60;7.30;;;;;;;;;;5031490;28;20510;-57
2024/02/08 11:23:51;;;;;;;12.50;7.30;;;;;;;;;;5031702;28;20025;-56
2024/02/08 11:26:25;;;;;;;12.35;7.20;;;;;;;;;;5031616;28;20090;-57
2024/02/08 11:29:01;;;;;;;12.48;7.28;;;;;;;;;;5031611;28;20049;-57
2024/02/08 11:31:32;;;;;;;12.00;7.00;;;;;;;;;;5031631;28;20430;-58
2024/02/08 11:34:12;;;;;;;12.70;7.60;;;;;;;;;;5030329;28;20021;-58
2024/02/08 11:36:40;;;;;;;13.32;7.80;;;;;;;;;;5029947;28;20091;-58
2024/02/08 11:39:26;;;;;;;12.57;7.38;;;;;;;;;;5031259;28;20033;-58
2024/02/08 11:41:52;;;;;;;13.15;7.68;;;;;;;;;;5031590;28;20530;-56
2024/02/08 11:44:25;;;;;;;12.90;7.50;;;;;;;;;;5030022;28;20048;-52
2024/02/08 11:46:58;;;;;;;12.70;7.40;;;;;;;;;;5031238;28;20491;-59
2024/02/08 11:49:31;;;;;;;12.85;7.55;;;;;;;;;;5031178;28;20037;-58
2024/02/08 11:51:58;;;;;;;13.73;9.00;;;;;;;;;;5029979;28;20028;-58
2024/02/08 11:54:28;;;;;;;13.15;7.85;;;;;;;;;;5031050;28;20084;-60
2024/02/08 11:56:57;;;;;;;13.23;7.85;;;;;;;;;;5031152;28;20032;-59
2024/02/08 11:59:24;;;;;;;13.45;8.20;;;;;;;;;;5031068;28;20329;-58
2024/02/08 12:01:51;;;;;;;13.48;8.32;;;;;;;;;;5030715;28;20036;-58
2024/02/08 12:04:17;;;;;;;13.45;7.97;;;;;;;;;;5031144;28;20052;-57
2024/02/08 12:06:46;;;;;;;14.88;9.00;;;;;;;;;;5031040;28;20033;-57
2024/02/08 12:09:22;;;;;;;13.80;7.72;;;;;;;;;;5031167;28;20178;-58
2024/02/08 12:11:51;;;;;;;13.30;8.00;;;;;;;;;;5030621;28;20053;-59
2024/02/08 12:14:18;;;;;;;13.45;8.25;;;;;;;;;;5030693;28;20033;-59
2024/02/08 12:16:46;;;;;;;13.27;7.90;;;;;;;;;;5030800;28;20471;-60
2024/02/08 12:19:19;;;;;;;13.23;8.20;;;;;;;;;;5030926;28;20049;-58
2024/02/08 12:21:56;;;;;;;13.25;7.95;;;;;;;;;;5028967;28;20021;-60
2024/02/08 12:24:23;;;;;;;13.23;7.72;;;;;;;;;;5030788;28;20163;-57
2024/02/08 12:26:53;;;;;;;13.30;7.93;;;;;;;;;;5031053;28;20029;-61
2024/02/08 12:29:20;;;;;;;13.43;8.10;;;;;;;;;;5030753;28;20022;-58
2024/02/08 12:31:47;;;;;;;13.52;8.40;;;;;;;;;;5030212;28;20030;-59
2024/02/08 12:34:17;;;;;;;13.35;8.15;;;;;;;;;;5030649;28;20036;-60
2024/02/08 12:36:44;;;;;;;13.40;8.05;;;;;;;;;;5030532;28;20029;-58
2024/02/08 12:39:17;;;;;;;13.48;8.40;;;;;;;;;;5029470;28;20033;-58
2024/02/08 12:41:44;;;;;;;13.50;8.30;;;;;;;;;;5028690;28;20033;-56
2024/02/08 12:44:11;;;;;;;13.15;7.97;;;;;;;;;;5030445;28;20093;-58
2024/02/08 12:46:37;;;;;;;13.27;8.18;;;;;;;;;;5030869;28;20507;-56
2024/02/08 12:49:04;;;;;;;13.45;8.30;;;;;;;;;;5028894;28;20049;-54
2024/02/08 12:51:31;;;;;;;13.25;7.95;;;;;;;;;;5029641;28;20036;-58
2024/02/08 12:54:01;;;;;;;13.45;8.10;;;;;;;;;;5028696;28;20029;-58
2024/02/08 12:56:27;;;;;;;13.32;7.95;;;;;;;;;;5028946;28;20033;-59
2024/02/08 12:59:03;;;;;;;13.18;7.85;;;;;;;;;;5029912;28;20275;-59
2024/02/08 13:01:39;;;;;;;13.20;7.60;;;;;;;;;;5028434;28;20029;-58
2024/02/08 13:04:07;;;;;;;13.30;7.80;;;;;;;;;;5029285;28;20060;-58
2024/02/08 13:06:33;;;;;;;;;;;;;;;;;;5030195;28;20360;-57
2024/02/08 13:09:16;;;;;;;13.40;8.10;;;;;;;;;;5029932;28;19975;-59
2024/02/08 13:11:44;;;;;;;13.55;8.75;;;;;;;;;;5029504;28;20395;-59
2024/02/08 13:14:14;;;;;;;13.45;8.20;;;;;;;;;;5028029;28;20047;-58
2024/02/08 13:16:40;;;;;;;13.55;8.50;;;;;;;;;;5027841;28;20076;-58
2024/02/08 13:19:06;;;;;;;13.38;8.05;;;;;;;;;;5029741;28;20032;-60
2024/02/08 13:21:32;;;;;;;13.35;8.27;;;;;;;;;;5029030;28;20041;-59
2024/02/08 13:23:59;;;;;;;13.38;8.00;;;;;;;;;;5029864;28;20040;-55
2024/02/08 13:26:25;;;;;;;13.40;8.20;;;;;;;;;;5029211;28;20108;-57
2024/02/08 13:28:51;;;;;;;13.35;7.97;;;;;;;;;;5028764;28;20125;-60
2024/02/08 13:31:18;;;;;;;13.32;8.20;;;;;;;;;;5029240;28;20029;-60
2024/02/08 13:33:44;;;;;;;13.40;8.10;;;;;;;;;;5029164;28;20028;-54
2024/02/08 13:36:11;;;;;;;13.38;8.20;;;;;;;;;;5029157;28;20109;-60
2024/02/08 13:38:41;;;;;;;13.25;7.90;;;;;;;;;;5029260;28;20400;-57
2024/02/08 13:41:10;;;;;;;13.63;8.93;;;;;;;;;;5029027;28;20017;-57
2024/02/08 13:43:39;;;;;;;13.43;8.30;;;;;;;;;;5027800;28;20403;-59
2024/02/08 13:46:06;;;;;;;13.40;8.20;;;;;;;;;;5029185;28;20026;-59
2024/02/08 13:48:32;;;;;;;13.32;8.02;;;;;;;;;;5029245;28;20096;-59
2024/02/08 13:51:06;;;;;;;12.85;7.47;;;;;;;;;;5027567;28;20038;-60
2024/02/08 13:53:32;;;;;;;13.60;7.90;;;;;;;;;;5029019;28;20018;-58
2024/02/08 13:55:58;;;;;;;12.85;7.60;;;;;;;;;;5028906;28;20505;-59
2024/02/08 13:58:25;;;;;;;13.32;7.90;;;;;;;;;;5027826;28;20045;-59
2024/02/08 14:00:54;;;;;;;14.77;8.70;;;;;;;;;;5028981;28;20024;-58
2024/02/08 14:03:22;;;;;;;13.13;7.70;;;;;;;;;;5028657;28;20336;-58
2024/02/08 14:05:55;;;;;;;13.23;8.10;;;;;;;;;;5028787;28;20032;-52
2024/02/08 14:08:27;;;;;;;18.55;11.00;;;;;;;;;;5028832;28;20033;-57
2024/02/08 14:10:53;;;;;;;13.20;7.72;;;;;;;;;;5028464;28;20036;-59
2024/02/08 14:13:28;;;;;;;13.30;7.90;;;;;;;;;;5028295;28;20492;-58
2024/02/08 14:15:55;;;;;;;13.30;7.88;;;;;;;;;;5028575;28;20021;-59
2024/02/08 14:18:30;;;;;;;13.30;7.80;;;;;;;;;;5027217;28;20491;-58
2024/02/08 14:20:56;;;;;;;13.10;8.05;;;;;;;;;;5028439;28;20021;-59
2024/02/08 14:23:38;;;;;;;13.32;7.90;;;;;;;;;;5028046;28;20094;-55
2024/02/08 14:28:46;;;;;;;12.93;7.60;;;;;;;;;;5028541;28;20026;-58
2024/02/08 14:31:12;;;;;;;;;;;;;;;;;;5028646;28;20058;-58
2024/02/08 14:33:41;;;;;;;13.18;7.70;;;;;;;;;;5027901;28;19912;-58
2024/02/08 14:36:08;;;;;;;13.20;7.80;;;;;;;;;;5027946;28;20439;-56
2024/02/08 14:38:40;;;;;;;13.20;7.70;;;;;;;;;;5028051;28;20455;-59
2024/02/08 14:41:06;;;;;;;13.02;7.57;;;;;;;;;;5028021;28;20449;-57
2024/02/08 14:43:32;;;;;;;13.40;8.10;;;;;;;;;;5046671;28;20020;-55
2024/02/08 14:46:01;;;;;;;12.77;7.43;;;;;;;;;;5047952;28;20048;-59
2024/02/08 14:48:28;;;;;;;12.70;7.40;;;;;;;;;;5048078;28;20037;-55
2024/02/08 14:53:44;;;;;;;12.88;7.50;;;;;;;;;;5048517;28;20067;-57
2024/02/08 14:56:18;;;;;;;12.90;7.53;;;;;;;;;;5047650;28;20056;-57
2024/02/08 14:58:56;;;;;;;15.27;9.18;;;;;;;;;;5048319;28;20487;-56
2024/02/08 15:01:52;;;;;;;13.85;8.80;;;;;;;;;;5048160;28;20037;-60
2024/02/08 15:04:25;;;;;;;12.55;7.40;;;;;;;;;;5063500;28;20113;-59
2024/02/08 15:14:35;;;;;;;12.20;7.18;;;;;;;;;;5048215;28;20495;-62
2024/02/08 15:17:07;;;;;;;12.38;7.28;;;;;;;;;;5048175;28;20487;-57
2024/02/08 15:19:34;;;;;;;13.10;7.78;;;;;;;;;;5048275;28;20108;-59
2024/02/08 15:22:18;;;;;;;12.10;7.03;;;;;;;;;;5047590;28;20037;-56
2024/02/08 15:24:46;;;;;;;12.25;7.13;;;;;;;;;;5030544;28;20079;-59
2024/02/08 15:27:18;;;;;;;;;;;;;;;;;;4680372;28;9999771;-60
2024/02/08 15:29:45;;;;;;;12.73;7.40;;;;;;;;;;5025079;28;19905;-56
2024/02/08 15:32:17;;;;;;;13.23;7.78;;;;;;;;;;5028860;28;20033;-59
2024/02/08 15:34:58;;;;;;;12.50;7.25;;;;;;;;;;5029115;28;20369;-56
2024/02/08 15:37:41;;;;;;;12.55;7.53;;;;;;;;;;5037034;28;20021;-56
2024/02/08 15:40:16;;;;;;;12.27;7.13;;;;;;;;;;5044734;28;20037;-60
2024/02/08 15:42:42;;;;;;;11.80;6.95;;;;;;;;;;5028753;28;20105;-58
2024/02/08 15:45:16;;;;;;;12.10;7.03;;;;;;;;;;5028561;28;20037;-62
2024/02/08 15:47:55;;;;;;;12.45;7.30;;;;;;;;;;5028789;28;20040;-58
2024/02/08 15:50:42;;;;;;;12.27;7.15;;;;;;;;;;5027384;28;20022;-60
2024/02/08 15:53:18;;;;;;;12.37;7.20;;;;;;;;;;5028425;28;20146;-59
2024/02/08 15:55:55;;;;;;;12.77;7.68;;;;;;;;;;5028741;28;20032;-60
2024/02/08 15:58:29;;;;;;;12.05;7.00;;;;;;;;;;5028579;28;20030;-56
2024/02/08 16:01:10;;;;;;;13.07;7.70;;;;;;;;;;5027168;28;20037;-62
2024/02/08 16:03:55;;;;;;;13.32;7.60;;;;;;;;;;5027636;28;20096;-58
2024/02/08 16:09:07;;;;;;;13.40;7.80;;;;;;;;;;5028201;28;20037;-59
2024/02/08 16:11:34;;;;;;;12.70;7.40;;;;;;;;;;5028120;28;20025;-62
2024/02/08 16:14:04;;;;;;;12.68;7.30;;;;;;;;;;5027083;28;20025;-60
2024/02/08 16:16:34;;;;;;;12.40;7.20;;;;;;;;;;5028600;28;20132;-58
2024/02/08 16:21:45;;;;;;;12.38;7.22;;;;;;;;;;5025405;28;20039;-60
2024/02/08 16:24:18;;;;;;;12.32;7.20;;;;;;;;;;5027424;28;20053;-60
2024/02/08 16:26:52;;;;;;;12.20;7.10;;;;;;;;;;5027758;28;20029;-56
2024/02/08 16:29:20;;;;;;;12.40;7.72;;;;;;;;;;5027498;28;20487;-58
2024/02/08 16:31:54;;;;;;;12.30;7.15;;;;;;;;;;5027590;28;20515;-61
2024/02/08 16:34:25;;;;;;;12.10;7.10;;;;;;;;;;5027643;28;20055;-61
2024/02/08 16:36:52;;;;;;;12.38;7.20;;;;;;;;;;5022997;28;20356;-59
2024/02/08 16:44:35;;;;;;;11.93;6.97;;;;;;;;;;5027822;28;20686;-60
2024/02/08 16:47:05;;;;;;;12.38;7.20;;;;;;;;;;5027693;28;20025;-60
2024/02/08 16:49:40;;;;;;;12.13;7.13;;;;;;;;;;5027188;28;20048;-57
2024/02/08 16:52:07;;;;;;;11.95;7.00;;;;;;;;;;5027049;28;20056;-57
2024/02/08 16:54:42;;;;;;;11.63;6.82;;;;;;;;;;5027797;28;20033;-61
2024/02/08 16:57:09;;;;;;;16.58;8.32;;;;;;;;;;5027109;28;20025;-60
2024/02/08 16:59:47;;;;;;;12.00;7.05;;;;;;;;;;5026889;28;20084;-61
2024/02/08 17:02:26;;;;;;;11.90;7.00;;;;;;;;;;5026915;28;20112;-58
2024/02/08 17:05:09;;;;;;;12.50;7.40;;;;;;;;;;5025831;28;20064;-57
2024/02/08 17:13:10;;;;;;;13.45;8.30;;;;;;;;;;5026798;28;20631;-57
2024/02/08 17:15:49;;;;;;;13.90;9.82;;;;;;;;;;5026944;28;20101;-56
2024/02/08 17:18:23;;;;;;;13.50;8.50;;;;;;;;;;5027036;28;20030;-57
2024/02/08 17:20:55;;;;;;;17.85;9.35;;;;;;;;;;5028618;28;20347;-59
2024/02/08 17:23:27;;;;;;;13.63;8.75;;;;;;;;;;5029741;28;20065;-58
2024/02/08 17:26:06;;;;;;;13.68;9.00;;;;;;;;;;5030223;28;20646;-58
2024/02/08 17:28:35;;;;;;;13.73;9.20;;;;;;;;;;5029684;28;20423;-61